createdAt,value
2022-09-07T00:02:25.395Z,13.07
2022-09-07T00:04:52.212Z,12.35
2022-09-07T00:07:19.097Z,11.68
2022-09-07T00:09:45.973Z,15.43
2022-09-07T00:12:12.816Z,13.20
2022-09-07T00:14:39.594Z,11.18
2022-09-07T00:17:06.383Z,15.23
2022-09-07T00:19:33.234Z,12.65
2022-09-07T00:22:00.134Z,13.00
2022-09-07T00:24:27.699Z,13.27
2022-09-07T00:26:57.366Z,12.02
2022-09-07T00:29:24.384Z,14.50
2022-09-07T00:31:51.220Z,12.55
2022-09-07T00:34:18.074Z,15.50
2022-09-07T00:36:44.805Z,12.82
2022-09-07T00:39:11.607Z,12.32
2022-09-07T00:41:38.399Z,11.70
2022-09-07T00:44:42.472Z,16.45
2022-09-07T00:47:41.767Z,13.37
2022-09-07T00:50:18.808Z,16.65
2022-09-07T00:52:51.063Z,12.05
2022-09-07T00:55:18.500Z,14.45
2022-09-07T00:57:50.642Z,12.70
2022-09-07T01:00:17.531Z,12.27
2022-09-07T01:02:46.820Z,12.30
2022-09-07T01:05:42.054Z,12.13
2022-09-07T01:08:09.490Z,13.80
2022-09-07T01:10:37.675Z,11.63
2022-09-07T01:13:04.954Z,15.87
2022-09-07T01:15:46.110Z,12.82
2022-09-07T01:18:18.787Z,12.70
2022-09-07T01:21:16.613Z,14.38
2022-09-07T01:24:27.787Z,15.45
2022-09-07T01:27:12.978Z,14.77
2022-09-07T01:30:01.211Z,15.68
2022-09-07T01:32:30.764Z,16.30
2022-09-07T01:35:00.007Z,14.85
2022-09-07T01:37:56.914Z,12.75
2022-09-07T01:40:40.206Z,12.80
2022-09-07T01:43:18.999Z,14.98
2022-09-07T01:45:46.974Z,11.43
2022-09-07T01:48:17.481Z,11.20
2022-09-07T01:50:51.357Z,12.90
2022-09-07T01:53:38.017Z,13.27
2022-09-07T01:56:13.872Z,12.77
2022-09-07T01:58:56.158Z,11.77
2022-09-07T02:01:33.582Z,13.27
2022-09-07T02:04:10.801Z,16.63
2022-09-07T02:07:10.154Z,10.93
2022-09-07T02:09:52.167Z,15.68
2022-09-07T02:12:27.825Z,17.17
2022-09-07T02:15:00.234Z,13.73
2022-09-07T02:17:45.686Z,13.25
2022-09-07T02:20:17.724Z,15.50
2022-09-07T02:22:49.295Z,14.30
2022-09-07T02:25:22.843Z,12.95
2022-09-07T02:28:00.163Z,18.10
2022-09-07T02:30:27.083Z,13.57
2022-09-07T02:32:56.166Z,13.80
2022-09-07T02:35:23.342Z,14.95
2022-09-07T02:37:51.413Z,15.15
2022-09-07T02:40:18.490Z,16.17
2022-09-07T02:42:47.455Z,13.90
2022-09-07T02:45:15.638Z,10.93
2022-09-07T02:48:06.703Z,12.57
2022-09-07T02:51:10.034Z,11.93
2022-09-07T02:54:02.615Z,12.82
2022-09-07T02:56:29.403Z,13.48
2022-09-07T02:59:07.774Z,12.50
2022-09-07T03:01:56.658Z,13.95
2022-09-07T03:04:43.349Z,12.82
2022-09-07T03:07:15.441Z,13.52
2022-09-07T03:09:46.652Z,13.23
2022-09-07T03:12:13.759Z,14.83
2022-09-07T03:14:42.215Z,16.00
2022-09-07T03:17:09.807Z,15.20
2022-09-07T03:19:36.623Z,15.63
2022-09-07T03:22:04.478Z,16.17
2022-09-07T03:24:31.239Z,14.77
2022-09-07T03:26:58.682Z,17.52
2022-09-07T03:29:25.543Z,15.30
2022-09-07T03:31:52.347Z,13.80
2022-09-07T03:34:19.182Z,17.33
2022-09-07T03:36:45.921Z,14.63
2022-09-07T03:39:13.976Z,14.38
2022-09-07T03:41:40.914Z,14.63
2022-09-07T03:44:08.298Z,16.55
2022-09-07T03:46:35.402Z,12.55
2022-09-07T03:49:02.187Z,15.43
2022-09-07T03:51:29.088Z,14.25
2022-09-07T03:53:55.902Z,14.52
2022-09-07T03:56:24.258Z,17.77
2022-09-07T03:58:51.623Z,14.52
2022-09-07T04:01:21.628Z,18.00
2022-09-07T04:03:49.078Z,15.30
2022-09-07T04:06:16.766Z,19.70
2022-09-07T04:08:45.326Z,16.60
2022-09-07T04:11:14.914Z,15.30
2022-09-07T04:13:42.057Z,16.80
2022-09-07T04:16:16.833Z,13.45
2022-09-07T04:18:44.377Z,15.82
2022-09-07T04:21:12.147Z,17.13
2022-09-07T04:23:40.377Z,17.23
2022-09-07T04:26:07.532Z,17.20
2022-09-07T04:28:34.318Z,23.27
2022-09-07T04:31:02.171Z,19.33
2022-09-07T04:33:31.867Z,18.95
2022-09-07T04:36:02.759Z,18.20
2022-09-07T04:38:30.150Z,20.83
2022-09-07T04:41:09.471Z,19.75
2022-09-07T04:43:37.547Z,17.13
2022-09-07T04:46:06.291Z,22.75
2022-09-07T04:48:33.398Z,20.13
2022-09-07T04:51:10.827Z,24.27
2022-09-07T04:53:38.532Z,17.50
2022-09-07T04:56:05.564Z,24.95
2022-09-07T04:58:32.650Z,20.13
2022-09-07T05:01:04.645Z,21.38
2022-09-07T05:03:33.850Z,22.87
2022-09-07T05:06:02.050Z,21.63
2022-09-07T05:08:29.246Z,21.88
2022-09-07T05:10:57.549Z,23.67
2022-09-07T05:13:25.536Z,23.90
2022-09-07T05:15:52.332Z,23.47
2022-09-07T05:18:19.206Z,24.33
2022-09-07T05:20:45.951Z,23.63
2022-09-07T05:23:12.872Z,20.40
2022-09-07T05:25:47.020Z,20.42
2022-09-07T05:28:19.078Z,17.67
2022-09-07T05:36:22.784Z,17.75
2022-09-07T05:38:49.649Z,19.00
2022-09-07T05:41:19.367Z,17.33
2022-09-07T05:46:33.743Z,17.40
2022-09-07T05:49:01.321Z,17.55
2022-09-07T05:51:28.071Z,19.17
2022-09-07T05:53:55.827Z,18.40
2022-09-07T05:56:22.598Z,23.13
2022-09-07T05:58:49.589Z,23.42
2022-09-07T06:01:17.660Z,18.05
2022-09-07T06:03:44.848Z,18.77
2022-09-07T06:06:14.261Z,15.87
2022-09-07T06:08:53.306Z,15.85
2022-09-07T06:11:22.310Z,15.25
2022-09-07T06:13:49.702Z,18.02
2022-09-07T06:16:18.634Z,17.30
2022-09-07T06:18:47.667Z,13.57
2022-09-07T06:21:20.924Z,15.00
2022-09-07T06:23:49.091Z,15.68
2022-09-07T06:26:17.445Z,16.05
2022-09-07T06:28:49.647Z,14.82
2022-09-07T06:31:22.907Z,20.53
2022-09-07T06:33:51.529Z,16.45
2022-09-07T06:36:23.850Z,18.00
2022-09-07T06:38:51.654Z,15.10
2022-09-07T06:44:17.342Z,12.20
2022-09-07T06:49:31.155Z,15.80
2022-09-07T06:51:58.037Z,16.60
2022-09-07T06:57:11.713Z,15.73
2022-09-07T06:59:38.804Z,17.73
2022-09-07T07:02:07.115Z,16.55
2022-09-07T07:04:39.411Z,15.35
2022-09-07T07:07:10.820Z,17.45
2022-09-07T07:09:38.240Z,14.27
2022-09-07T07:12:05.113Z,20.40
2022-09-07T07:14:35.551Z,16.00
2022-09-07T07:17:03.252Z,18.27
2022-09-07T07:19:30.252Z,18.58
2022-09-07T07:24:45.283Z,18.00
2022-09-07T07:27:12.238Z,17.80
2022-09-07T07:29:39.026Z,16.67
2022-09-07T07:32:05.795Z,14.27
2022-09-07T07:34:33.138Z,14.50
2022-09-07T07:37:00.142Z,18.02
2022-09-07T07:42:13.606Z,16.85
2022-09-07T07:44:40.435Z,14.95
2022-09-07T07:47:07.374Z,14.27
2022-09-07T07:49:34.108Z,14.95
2022-09-07T07:54:48.123Z,14.73
2022-09-07T07:57:16.848Z,14.65
2022-09-07T07:59:43.642Z,14.00
2022-09-07T08:02:15.704Z,16.27
2022-09-07T08:04:42.649Z,13.80
2022-09-07T08:07:12.077Z,15.52
2022-09-07T08:09:43.360Z,14.40
2022-09-07T08:12:13.074Z,16.17
2022-09-07T08:14:41.397Z,16.83
2022-09-07T08:17:13.429Z,14.65
2022-09-07T08:19:40.682Z,15.45
2022-09-07T08:22:08.834Z,14.82
2022-09-07T08:24:35.568Z,14.63
2022-09-07T08:27:03.436Z,13.40
2022-09-07T08:29:34.617Z,14.85
2022-09-07T08:32:03.690Z,13.75
2022-09-07T08:34:30.537Z,14.20
2022-09-07T08:36:57.253Z,13.87
2022-09-07T08:39:23.984Z,13.10
2022-09-07T08:42:03.382Z,17.30
2022-09-07T08:44:30.090Z,13.13
2022-09-07T08:47:10.999Z,13.10
2022-09-07T08:49:50.694Z,18.67
2022-09-07T08:52:25.273Z,14.45
2022-09-07T08:55:15.707Z,13.98
2022-09-07T08:57:49.569Z,15.20
2022-09-07T09:00:17.990Z,14.93
2022-09-07T09:05:46.234Z,12.02
2022-09-07T09:06:11.709Z,16.87
2022-09-07T09:08:39.855Z,13.40
2022-09-07T09:11:12.137Z,14.73
2022-09-07T09:13:58.345Z,14.05
2022-09-07T09:16:42.940Z,13.67
2022-09-07T09:19:28.427Z,13.80
2022-09-07T09:22:22.838Z,15.10
2022-09-07T09:25:12.667Z,12.73
2022-09-07T09:27:39.531Z,13.70
2022-09-07T09:30:14.665Z,13.43
2022-09-07T09:32:44.206Z,13.20
2022-09-07T09:35:24.030Z,18.92
2022-09-07T09:37:50.842Z,12.82
2022-09-07T09:40:26.645Z,13.35
2022-09-07T09:43:01.707Z,13.43
2022-09-07T09:46:12.098Z,12.60
2022-09-07T09:48:26.872Z,12.73
2022-09-07T09:53:57.167Z,13.02
2022-09-07T09:56:37.052Z,13.53
2022-09-07T10:05:48.592Z,11.13
2022-09-07T10:08:25.064Z,11.10
2022-09-07T10:11:06.787Z,12.23
2022-09-07T10:13:46.870Z,11.43
2022-09-07T10:16:14.951Z,15.20
2022-09-07T10:18:55.818Z,10.70
2022-09-07T10:21:30.520Z,12.13
2022-09-07T10:24:14.555Z,11.23
2022-09-07T10:26:44.467Z,12.80
2022-09-07T10:29:14.871Z,13.43
2022-09-07T10:32:21.448Z,12.40
2022-09-07T10:34:56.469Z,12.05
2022-09-07T10:37:51.617Z,11.07
2022-09-07T10:40:25.086Z,12.43
2022-09-07T10:45:59.048Z,13.55
2022-09-07T10:48:52.653Z,14.60
2022-09-07T10:51:28.048Z,12.47
2022-09-07T10:57:18.137Z,10.40
2022-09-07T11:06:06.591Z,12.30
2022-09-07T11:12:02.014Z,12.07
2022-09-07T11:14:34.743Z,13.80
2022-09-07T11:17:05.417Z,12.77
2022-09-07T11:19:51.378Z,10.67
2022-09-07T11:22:36.381Z,14.63
2022-09-07T11:25:33.534Z,14.90
2022-09-07T11:28:25.747Z,13.10
2022-09-07T11:31:02.515Z,10.18
2022-09-07T11:33:39.982Z,12.23
2022-09-07T11:36:12.584Z,10.15
2022-09-07T11:38:51.315Z,11.02
2022-09-07T11:41:26.879Z,12.50
2022-09-07T11:44:09.797Z,12.80
2022-09-07T11:46:43.281Z,10.33
2022-09-07T11:49:28.775Z,11.02
2022-09-07T11:52:04.969Z,9.82
2022-09-07T11:54:48.516Z,10.73
2022-09-07T11:57:15.176Z,9.18
2022-09-07T11:59:51.482Z,10.27
2022-09-07T12:02:58.107Z,7.82
2022-09-07T12:06:03.638Z,9.35
2022-09-07T12:08:39.263Z,9.63
2022-09-07T12:11:23.425Z,10.98
2022-09-07T12:13:50.163Z,9.07
2022-09-07T12:16:28.696Z,8.05
2022-09-07T12:19:20.096Z,11.73
2022-09-07T12:21:52.815Z,8.38
2022-09-07T12:24:38.289Z,9.15
2022-09-07T12:27:20.335Z,7.87
2022-09-07T12:29:47.488Z,8.38
2022-09-07T12:32:57.502Z,10.07
2022-09-07T12:35:37.204Z,9.52
2022-09-07T12:38:24.995Z,9.43
2022-09-07T12:40:54.687Z,7.47
2022-09-07T12:43:21.348Z,9.02
2022-09-07T12:45:51.569Z,9.00
2022-09-07T12:48:18.224Z,7.60
2022-09-07T12:51:06.271Z,9.85
2022-09-07T12:53:35.831Z,8.77
2022-09-07T12:56:18.588Z,9.18
2022-09-07T12:59:19.818Z,10.10
2022-09-07T13:02:16.505Z,8.48
2022-09-07T13:05:07.557Z,8.48
2022-09-07T13:08:09.294Z,10.70
2022-09-07T13:10:39.485Z,8.73
2022-09-07T13:13:17.688Z,8.68
2022-09-07T13:15:46.192Z,9.98
2022-09-07T13:18:35.930Z,8.98
2022-09-07T13:21:09.068Z,8.70
2022-09-07T13:23:37.819Z,6.78
2022-09-07T13:26:08.665Z,7.90
2022-09-07T13:28:58.147Z,7.63
2022-09-07T13:31:31.240Z,7.05
2022-09-07T13:33:58.075Z,8.90
2022-09-07T13:36:48.381Z,8.40
2022-09-07T13:39:18.582Z,6.53
2022-09-07T13:41:58.159Z,6.72
2022-09-07T13:44:32.213Z,8.18
2022-09-07T13:47:07.783Z,7.07
2022-09-07T13:49:56.041Z,9.95
2022-09-07T13:52:28.925Z,9.38
2022-09-07T13:55:01.297Z,8.18
2022-09-07T13:57:31.694Z,10.48
2022-09-07T13:59:59.006Z,8.83
2022-09-07T14:02:31.861Z,7.72
2022-09-07T14:05:00.502Z,10.00
2022-09-07T14:07:29.923Z,8.38
2022-09-07T14:10:14.875Z,9.73
2022-09-07T14:12:44.285Z,8.50
2022-09-07T14:15:29.239Z,8.43
2022-09-07T14:18:11.606Z,9.80
2022-09-07T14:20:41.975Z,8.38
2022-09-07T14:23:22.872Z,8.07
2022-09-07T14:26:18.403Z,7.37
2022-09-07T14:28:48.807Z,8.55
2022-09-07T14:31:19.792Z,8.57
2022-09-07T14:33:55.502Z,8.77
2022-09-07T14:36:43.929Z,9.27
2022-09-07T14:39:13.397Z,10.27
2022-09-07T14:41:42.034Z,7.85
2022-09-07T14:44:30.987Z,7.75
2022-09-07T14:47:02.937Z,8.38
2022-09-07T14:49:30.092Z,7.20
2022-09-07T14:51:57.187Z,8.57
2022-09-07T14:54:28.858Z,11.15
2022-09-07T14:57:23.683Z,8.02
2022-09-07T14:59:50.390Z,8.88
2022-09-07T15:02:26.407Z,8.93
2022-09-07T15:05:20.859Z,8.67
2022-09-07T15:07:55.924Z,9.43
2022-09-07T15:10:23.692Z,6.70
2022-09-07T15:13:02.381Z,9.73
2022-09-07T15:15:37.182Z,8.38
2022-09-07T15:18:54.389Z,9.00
2022-09-07T15:21:32.547Z,10.07
2022-09-07T15:24:01.093Z,10.25
2022-09-07T15:29:29.372Z,10.00
2022-09-07T15:32:03.459Z,12.93
2022-09-07T15:34:32.288Z,8.55
2022-09-07T15:37:00.833Z,11.07
2022-09-07T15:39:29.947Z,7.28
2022-09-07T15:41:58.189Z,8.27
2022-09-07T15:44:28.429Z,10.23
2022-09-07T15:49:49.232Z,9.55
2022-09-07T15:52:17.775Z,11.32
2022-09-07T15:54:45.010Z,9.80
2022-09-07T15:59:58.923Z,9.05
2022-09-07T16:05:13.553Z,9.90
2022-09-07T16:10:31.045Z,10.67
2022-09-07T16:13:01.819Z,9.38
2022-09-07T16:15:29.963Z,9.68
2022-09-07T16:17:56.993Z,7.95
2022-09-07T16:20:32.015Z,12.55
2022-09-07T16:23:16.144Z,9.37
2022-09-07T16:25:58.717Z,14.43
2022-09-07T16:28:27.060Z,12.65
2022-09-07T16:30:56.193Z,9.23
2022-09-07T16:33:29.201Z,11.52
2022-09-07T16:36:07.320Z,8.63
2022-09-07T16:38:50.629Z,10.85
2022-09-07T16:41:20.755Z,8.90
2022-09-07T16:43:47.805Z,10.55
2022-09-07T16:46:16.917Z,12.18
2022-09-07T16:48:44.260Z,11.33
2022-09-07T16:51:18.706Z,10.50
2022-09-07T16:53:45.490Z,9.63
2022-09-07T16:56:16.522Z,10.43
2022-09-07T16:58:45.570Z,11.73
2022-09-07T17:01:15.360Z,12.77
2022-09-07T17:03:42.769Z,9.93
2022-09-07T17:06:12.245Z,11.25
2022-09-07T17:08:40.140Z,11.35
2022-09-07T17:11:07.857Z,11.18
2022-09-07T17:13:36.502Z,10.03
2022-09-07T17:16:12.908Z,11.13
2022-09-07T17:21:37.052Z,9.65
2022-09-07T17:24:05.553Z,10.05
2022-09-07T17:26:32.687Z,9.63
2022-09-07T17:29:00.970Z,11.43
2022-09-07T17:34:20.140Z,18.20
2022-09-07T17:36:47.250Z,12.45
2022-09-07T17:39:16.258Z,13.60
2022-09-07T17:41:45.099Z,11.18
2022-09-07T17:44:12.440Z,11.45
2022-09-07T17:46:39.403Z,14.02
2022-09-07T17:49:08.120Z,13.18
2022-09-07T17:51:35.952Z,18.47
2022-09-07T17:54:09.584Z,17.48
2022-09-07T17:56:37.408Z,23.83
2022-09-07T18:01:51.088Z,19.77
2022-09-07T18:04:17.786Z,13.73
2022-09-07T18:06:44.505Z,11.57
2022-09-07T18:09:11.866Z,10.35
2022-09-07T18:11:47.675Z,14.80
2022-09-07T18:14:15.833Z,13.25
2022-09-07T18:16:44.973Z,13.80
2022-09-07T18:19:12.595Z,14.60
2022-09-07T18:21:41.980Z,12.13
2022-09-07T18:24:16.979Z,12.93
2022-09-07T18:26:50.090Z,12.60
2022-09-07T18:29:31.116Z,15.23
2022-09-07T18:32:00.292Z,13.43
2022-09-07T18:34:28.803Z,12.80
2022-09-07T18:36:55.891Z,12.82
2022-09-07T18:39:22.805Z,16.02
2022-09-07T18:41:49.606Z,11.77
2022-09-07T18:47:03.014Z,19.90
2022-09-07T18:49:29.701Z,13.15
2022-09-07T18:54:43.117Z,10.43
2022-09-07T18:57:10.123Z,11.75
2022-09-07T18:59:36.816Z,11.15
2022-09-07T19:02:05.760Z,11.93
2022-09-07T19:07:23.901Z,12.90
2022-09-07T19:09:52.802Z,15.00
2022-09-07T19:12:19.900Z,13.40
2022-09-07T19:14:46.540Z,13.57
2022-09-07T19:17:13.218Z,10.80
2022-09-07T19:19:40.272Z,11.67
2022-09-07T19:22:06.942Z,11.73
2022-09-07T19:24:34.209Z,10.20
2022-09-07T19:27:01.361Z,10.18
2022-09-07T19:29:28.667Z,9.10
2022-09-07T19:32:04.162Z,8.40
2022-09-07T19:34:39.064Z,11.90
2022-09-07T19:37:07.038Z,10.93
2022-09-07T19:39:34.179Z,11.02
2022-09-07T19:42:02.291Z,10.68
2022-09-07T19:44:29.025Z,11.53
2022-09-07T19:46:56.076Z,9.65
2022-09-07T19:49:23.157Z,9.57
2022-09-07T19:51:51.909Z,10.63
2022-09-07T19:54:19.211Z,12.02
2022-09-07T19:56:46.110Z,8.37
2022-09-07T19:59:12.796Z,11.32
2022-09-07T20:01:40.699Z,12.88
2022-09-07T20:04:12.926Z,13.02
2022-09-07T20:06:41.766Z,9.07
2022-09-07T20:09:08.463Z,10.33
2022-09-07T20:11:36.224Z,12.45
2022-09-07T20:14:03.326Z,10.05
2022-09-07T20:16:31.116Z,9.40
2022-09-07T20:18:58.810Z,10.95
2022-09-07T20:21:26.209Z,11.33
2022-09-07T20:23:53.042Z,12.45
2022-09-07T20:26:21.481Z,9.95
2022-09-07T20:29:11.023Z,9.98
2022-09-07T20:31:44.188Z,11.15
2022-09-07T20:34:11.135Z,11.10
2022-09-07T20:36:38.135Z,10.02
2022-09-07T20:39:04.921Z,10.27
2022-09-07T20:41:33.820Z,9.30
2022-09-07T20:44:02.617Z,11.38
2022-09-07T20:46:30.413Z,11.13
2022-09-07T20:48:57.516Z,9.63
2022-09-07T20:51:24.663Z,10.95
2022-09-07T20:53:51.381Z,10.07
2022-09-07T20:56:23.517Z,11.73
2022-09-07T20:58:58.187Z,14.37
2022-09-07T21:01:24.995Z,11.63
2022-09-07T21:03:57.174Z,12.75
2022-09-07T21:06:25.622Z,12.55
2022-09-07T21:08:53.194Z,9.80
2022-09-07T21:11:22.510Z,11.33
2022-09-07T21:13:58.621Z,10.63
2022-09-07T21:16:25.813Z,15.60
2022-09-07T21:18:55.464Z,10.68
2022-09-07T21:21:23.503Z,10.13
2022-09-07T21:23:55.773Z,10.57
2022-09-07T21:26:23.702Z,11.60
2022-09-07T21:29:01.990Z,10.23
2022-09-07T21:31:31.290Z,10.70
2022-09-07T21:34:00.024Z,9.77
2022-09-07T21:36:27.427Z,10.43
2022-09-07T21:38:54.482Z,11.07
2022-09-07T21:41:23.187Z,10.38
2022-09-07T21:43:55.397Z,11.63
2022-09-07T21:46:22.586Z,8.88
2022-09-07T21:48:49.463Z,16.57
2022-09-07T21:51:16.808Z,12.65
2022-09-07T21:53:43.873Z,10.98
2022-09-07T21:56:13.202Z,9.57
2022-09-07T21:58:40.453Z,10.23
2022-09-07T22:01:17.008Z,10.17
2022-09-07T22:03:48.530Z,11.38
2022-09-07T22:06:15.498Z,10.50
2022-09-07T22:08:42.655Z,11.93
2022-09-07T22:11:14.898Z,10.70
2022-09-07T22:13:42.351Z,9.80
2022-09-07T22:16:09.686Z,11.45
2022-09-07T22:18:37.885Z,9.65
2022-09-07T22:21:07.688Z,10.95
2022-09-07T22:23:40.082Z,10.15
2022-09-07T22:26:07.879Z,10.57
2022-09-07T22:28:35.214Z,8.38
2022-09-07T22:31:25.758Z,10.70
2022-09-07T22:33:54.240Z,13.18
2022-09-07T22:36:24.024Z,10.70
2022-09-07T22:38:53.174Z,11.07
2022-09-07T22:41:22.675Z,11.63
2022-09-07T22:43:52.614Z,11.68
2022-09-07T22:46:22.830Z,10.88
2022-09-07T22:48:50.236Z,12.45
2022-09-07T22:51:17.492Z,10.00
2022-09-07T22:53:44.582Z,12.23
2022-09-07T22:56:12.621Z,10.85
2022-09-07T22:58:39.655Z,13.38
2022-09-07T23:01:07.219Z,10.02
2022-09-07T23:03:35.077Z,12.07
2022-09-07T23:06:02.293Z,11.32
2022-09-07T23:08:29.545Z,10.88
2022-09-07T23:11:01.439Z,11.55
2022-09-07T23:13:28.159Z,10.75
2022-09-07T23:15:54.853Z,16.07
2022-09-07T23:18:23.075Z,10.10
2022-09-07T23:20:49.726Z,10.43
2022-09-07T23:23:16.439Z,10.55
2022-09-07T23:25:43.185Z,13.32
2022-09-07T23:28:12.448Z,15.57
2022-09-07T23:30:42.406Z,13.35
2022-09-07T23:33:09.078Z,8.40
2022-09-07T23:35:35.711Z,10.40
2022-09-07T23:38:02.479Z,9.77
2022-09-07T23:40:30.427Z,8.10
2022-09-07T23:42:57.637Z,9.25
2022-09-07T23:45:24.709Z,9.00
2022-09-07T23:47:51.504Z,14.40
2022-09-07T23:50:18.715Z,10.55
2022-09-07T23:52:45.463Z,8.30
2022-09-07T23:55:13.288Z,8.52
2022-09-07T23:57:39.998Z,12.43
